sensor_id;sensor_type;location;lat;lon;timestamp;P1;durP1;ratioP1;P2;durP2;ratioP2
45434;SDS011;31183;47.404;8.500;2023-05-15T00:01:17;4.05;;;3.45;;
45434;SDS011;31183;47.404;8.500;2023-05-15T00:03:44;6.72;;;4.03;;
45434;SDS011;31183;47.404;8.500;2023-05-15T00:06:11;4.90;;;4.30;;
45434;SDS011;31183;47.404;8.500;2023-05-15T00:08:38;6.88;;;3.88;;
45434;SDS011;31183;47.404;8.500;2023-05-15T00:11:04;3.80;;;3.50;;
45434;SDS011;31183;47.404;8.500;2023-05-15T00:13:31;5.13;;;3.83;;
45434;SDS011;31183;47.404;8.500;2023-05-15T00:15:57;6.15;;;4.00;;
45434;SDS011;31183;47.404;8.500;2023-05-15T00:18:24;3.72;;;3.33;;
45434;SDS011;31183;47.404;8.500;2023-05-15T00:20:51;3.92;;;3.30;;
45434;SDS011;31183;47.404;8.500;2023-05-15T00:23:18;6.78;;;3.55;;
45434;SDS011;31183;47.404;8.500;2023-05-15T00:25:44;4.10;;;3.70;;
45434;SDS011;31183;47.404;8.500;2023-05-15T00:28:11;4.25;;;3.75;;
45434;SDS011;31183;47.404;8.500;2023-05-15T00:30:38;4.57;;;4.05;;
45434;SDS011;31183;47.404;8.500;2023-05-15T00:33:04;4.43;;;3.72;;
45434;SDS011;31183;47.404;8.500;2023-05-15T00:35:31;3.63;;;3.33;;
45434;SDS011;31183;47.404;8.500;2023-05-15T00:37:58;3.65;;;3.28;;
45434;SDS011;31183;47.404;8.500;2023-05-15T00:40:25;4.15;;;3.33;;
45434;SDS011;31183;47.404;8.500;2023-05-15T00:42:52;3.40;;;3.10;;
45434;SDS011;31183;47.404;8.500;2023-05-15T00:45:20;4.90;;;3.38;;
45434;SDS011;31183;47.404;8.500;2023-05-15T00:47:48;3.05;;;2.78;;
45434;SDS011;31183;47.404;8.500;2023-05-15T00:50:15;4.05;;;3.47;;
45434;SDS011;31183;47.404;8.500;2023-05-15T00:52:42;3.33;;;3.03;;
45434;SDS011;31183;47.404;8.500;2023-05-15T00:55:09;3.70;;;3.40;;
45434;SDS011;31183;47.404;8.500;2023-05-15T00:57:35;3.00;;;2.80;;
45434;SDS011;31183;47.404;8.500;2023-05-15T01:00:03;3.05;;;2.75;;
45434;SDS011;31183;47.404;8.500;2023-05-15T01:02:35;3.85;;;3.40;;
45434;SDS011;31183;47.404;8.500;2023-05-15T01:05:02;3.50;;;3.20;;
45434;SDS011;31183;47.404;8.500;2023-05-15T01:07:30;4.50;;;2.85;;
45434;SDS011;31183;47.404;8.500;2023-05-15T01:10:03;2.95;;;2.72;;
45434;SDS011;31183;47.404;8.500;2023-05-15T01:12:31;3.17;;;2.85;;
45434;SDS011;31183;47.404;8.500;2023-05-15T01:15:00;4.45;;;2.92;;
45434;SDS011;31183;47.404;8.500;2023-05-15T01:17:27;2.97;;;2.78;;
45434;SDS011;31183;47.404;8.500;2023-05-15T01:19:54;3.42;;;2.92;;
45434;SDS011;31183;47.404;8.500;2023-05-15T01:28:25;3.75;;;3.30;;
45434;SDS011;31183;47.404;8.500;2023-05-15T01:31:00;4.97;;;3.50;;
45434;SDS011;31183;47.404;8.500;2023-05-15T01:33:42;4.70;;;3.83;;
45434;SDS011;31183;47.404;8.500;2023-05-15T01:39:01;3.90;;;3.50;;
45434;SDS011;31183;47.404;8.500;2023-05-15T01:44:17;4.15;;;3.70;;
45434;SDS011;31183;47.404;8.500;2023-05-15T01:46:48;5.68;;;3.92;;
45434;SDS011;31183;47.404;8.500;2023-05-15T01:49:17;4.25;;;3.65;;
45434;SDS011;31183;47.404;8.500;2023-05-15T01:51:46;4.03;;;3.35;;
45434;SDS011;31183;47.404;8.500;2023-05-15T01:54:15;3.50;;;3.20;;
45434;SDS011;31183;47.404;8.500;2023-05-15T01:56:43;3.95;;;3.58;;
45434;SDS011;31183;47.404;8.500;2023-05-15T01:59:12;4.68;;;4.15;;
45434;SDS011;31183;47.404;8.500;2023-05-15T02:01:39;3.95;;;3.55;;
45434;SDS011;31183;47.404;8.500;2023-05-15T02:04:07;4.15;;;3.75;;
45434;SDS011;31183;47.404;8.500;2023-05-15T02:06:36;4.90;;;4.40;;
45434;SDS011;31183;47.404;8.500;2023-05-15T02:09:04;5.13;;;4.13;;
45434;SDS011;31183;47.404;8.500;2023-05-15T02:11:31;5.28;;;4.78;;
45434;SDS011;31183;47.404;8.500;2023-05-15T02:13:58;9.18;;;5.40;;
45434;SDS011;31183;47.404;8.500;2023-05-15T02:16:26;4.53;;;4.13;;
45434;SDS011;31183;47.404;8.500;2023-05-15T02:18:53;6.82;;;4.28;;
45434;SDS011;31183;47.404;8.500;2023-05-15T02:21:20;5.07;;;4.68;;
45434;SDS011;31183;47.404;8.500;2023-05-15T02:23:46;4.68;;;4.28;;
45434;SDS011;31183;47.404;8.500;2023-05-15T02:29:03;4.32;;;3.83;;
45434;SDS011;31183;47.404;8.500;2023-05-15T02:37:13;4.45;;;4.05;;
45434;SDS011;31183;47.404;8.500;2023-05-15T02:39:46;5.50;;;5.00;;
45434;SDS011;31183;47.404;8.500;2023-05-15T02:42:14;4.65;;;4.20;;
45434;SDS011;31183;47.404;8.500;2023-05-15T02:44:41;4.70;;;4.30;;
45434;SDS011;31183;47.404;8.500;2023-05-15T02:47:09;5.10;;;4.40;;
45434;SDS011;31183;47.404;8.500;2023-05-15T02:49:37;5.10;;;4.60;;
45434;SDS011;31183;47.404;8.500;2023-05-15T02:52:04;5.35;;;4.93;;
45434;SDS011;31183;47.404;8.500;2023-05-15T02:54:31;7.00;;;5.60;;
45434;SDS011;31183;47.404;8.500;2023-05-15T02:56:58;5.75;;;4.88;;
45434;SDS011;31183;47.404;8.500;2023-05-15T02:59:24;7.03;;;5.45;;
45434;SDS011;31183;47.404;8.500;2023-05-15T03:01:51;5.57;;;5.07;;
45434;SDS011;31183;47.404;8.500;2023-05-15T03:04:19;5.57;;;5.07;;
45434;SDS011;31183;47.404;8.500;2023-05-15T03:06:46;5.65;;;5.10;;
45434;SDS011;31183;47.404;8.500;2023-05-15T03:09:12;5.78;;;4.95;;
45434;SDS011;31183;47.404;8.500;2023-05-15T03:11:39;5.93;;;5.32;;
45434;SDS011;31183;47.404;8.500;2023-05-15T03:14:05;5.00;;;4.50;;
45434;SDS011;31183;47.404;8.500;2023-05-15T03:16:32;5.53;;;5.03;;
45434;SDS011;31183;47.404;8.500;2023-05-15T03:18:59;5.07;;;4.57;;
45434;SDS011;31183;47.404;8.500;2023-05-15T03:21:25;5.22;;;4.72;;
45434;SDS011;31183;47.404;8.500;2023-05-15T03:23:52;5.30;;;4.63;;
45434;SDS011;31183;47.404;8.500;2023-05-15T03:26:19;5.82;;;4.35;;
45434;SDS011;31183;47.404;8.500;2023-05-15T03:28:45;4.22;;;3.83;;
45434;SDS011;31183;47.404;8.500;2023-05-15T03:31:12;7.35;;;4.88;;
45434;SDS011;31183;47.404;8.500;2023-05-15T03:33:39;6.40;;;4.70;;
45434;SDS011;31183;47.404;8.500;2023-05-15T03:36:06;5.30;;;4.55;;
45434;SDS011;31183;47.404;8.500;2023-05-15T03:38:32;6.82;;;4.30;;
45434;SDS011;31183;47.404;8.500;2023-05-15T03:40:59;5.25;;;4.75;;
45434;SDS011;31183;47.404;8.500;2023-05-15T03:43:26;4.85;;;4.35;;
45434;SDS011;31183;47.404;8.500;2023-05-15T03:45:52;5.72;;;4.50;;
45434;SDS011;31183;47.404;8.500;2023-05-15T03:48:19;4.90;;;4.47;;
45434;SDS011;31183;47.404;8.500;2023-05-15T03:50:45;5.35;;;4.82;;
45434;SDS011;31183;47.404;8.500;2023-05-15T03:53:12;5.85;;;5.00;;
45434;SDS011;31183;47.404;8.500;2023-05-15T03:55:39;4.63;;;4.22;;
45434;SDS011;31183;47.404;8.500;2023-05-15T03:58:06;5.53;;;5.03;;
45434;SDS011;31183;47.404;8.500;2023-05-15T04:00:32;7.75;;;4.85;;
45434;SDS011;31183;47.404;8.500;2023-05-15T04:03:00;4.82;;;4.38;;
45434;SDS011;31183;47.404;8.500;2023-05-15T04:05:26;5.80;;;4.68;;
45434;SDS011;31183;47.404;8.500;2023-05-15T04:07:53;4.70;;;4.25;;
45434;SDS011;31183;47.404;8.500;2023-05-15T04:10:20;5.43;;;4.90;;
45434;SDS011;31183;47.404;8.500;2023-05-15T04:12:47;5.72;;;5.13;;
45434;SDS011;31183;47.404;8.500;2023-05-15T04:15:18;5.70;;;5.10;;
45434;SDS011;31183;47.404;8.500;2023-05-15T04:17:49;5.95;;;5.32;;
45434;SDS011;31183;47.404;8.500;2023-05-15T04:20:18;6.28;;;5.15;;
45434;SDS011;31183;47.404;8.500;2023-05-15T04:22:49;5.72;;;4.97;;
45434;SDS011;31183;47.404;8.500;2023-05-15T04:25:16;6.55;;;5.85;;
45434;SDS011;31183;47.404;8.500;2023-05-15T04:27:43;5.32;;;4.80;;
45434;SDS011;31183;47.404;8.500;2023-05-15T04:30:11;11.60;;;6.00;;
45434;SDS011;31183;47.404;8.500;2023-05-15T04:32:38;7.75;;;5.72;;
45434;SDS011;31183;47.404;8.500;2023-05-15T04:35:06;7.68;;;5.53;;
45434;SDS011;31183;47.404;8.500;2023-05-15T04:37:37;7.05;;;5.47;;
45434;SDS011;31183;47.404;8.500;2023-05-15T04:40:04;7.25;;;6.45;;
45434;SDS011;31183;47.404;8.500;2023-05-15T04:42:33;7.63;;;6.10;;
45434;SDS011;31183;47.404;8.500;2023-05-15T04:45:01;6.90;;;6.07;;
45434;SDS011;31183;47.404;8.500;2023-05-15T04:47:28;6.50;;;5.80;;
45434;SDS011;31183;47.404;8.500;2023-05-15T04:49:54;7.07;;;6.38;;
45434;SDS011;31183;47.404;8.500;2023-05-15T04:52:21;7.55;;;6.75;;
45434;SDS011;31183;47.404;8.500;2023-05-15T04:54:47;6.88;;;6.20;;
45434;SDS011;31183;47.404;8.500;2023-05-15T04:57:16;7.85;;;6.40;;
45434;SDS011;31183;47.404;8.500;2023-05-15T04:59:42;8.40;;;6.80;;
45434;SDS011;31183;47.404;8.500;2023-05-15T05:02:09;6.68;;;6.00;;
45434;SDS011;31183;47.404;8.500;2023-05-15T05:04:36;10.75;;;6.85;;
45434;SDS011;31183;47.404;8.500;2023-05-15T05:07:02;7.07;;;6.38;;
45434;SDS011;31183;47.404;8.500;2023-05-15T05:09:30;8.02;;;7.10;;
45434;SDS011;31183;47.404;8.500;2023-05-15T05:12:00;8.70;;;6.93;;
45434;SDS011;31183;47.404;8.500;2023-05-15T05:14:27;6.22;;;5.63;;
45434;SDS011;31183;47.404;8.500;2023-05-15T05:16:53;11.43;;;7.30;;
45434;SDS011;31183;47.404;8.500;2023-05-15T05:19:20;7.78;;;6.63;;
45434;SDS011;31183;47.404;8.500;2023-05-15T05:21:47;8.05;;;6.72;;
45434;SDS011;31183;47.404;8.500;2023-05-15T05:24:14;8.90;;;7.65;;
45434;SDS011;31183;47.404;8.500;2023-05-15T05:26:42;8.50;;;6.57;;
45434;SDS011;31183;47.404;8.500;2023-05-15T05:29:09;7.88;;;7.05;;
45434;SDS011;31183;47.404;8.500;2023-05-15T05:31:36;8.45;;;7.15;;
45434;SDS011;31183;47.404;8.500;2023-05-15T05:34:03;8.02;;;6.88;;
45434;SDS011;31183;47.404;8.500;2023-05-15T05:36:30;8.15;;;7.32;;
45434;SDS011;31183;47.404;8.500;2023-05-15T05:38:56;8.73;;;7.82;;
45434;SDS011;31183;47.404;8.500;2023-05-15T05:41:23;9.10;;;7.35;;
45434;SDS011;31183;47.404;8.500;2023-05-15T05:43:49;8.35;;;7.45;;
45434;SDS011;31183;47.404;8.500;2023-05-15T05:46:16;9.10;;;8.15;;
45434;SDS011;31183;47.404;8.500;2023-05-15T05:48:43;8.77;;;7.75;;
45434;SDS011;31183;47.404;8.500;2023-05-15T05:51:09;8.93;;;8.13;;
45434;SDS011;31183;47.404;8.500;2023-05-15T05:53:36;10.48;;;7.70;;
45434;SDS011;31183;47.404;8.500;2023-05-15T05:56:04;9.35;;;8.32;;
45434;SDS011;31183;47.404;8.500;2023-05-15T05:58:31;9.13;;;8.10;;
45434;SDS011;31183;47.404;8.500;2023-05-15T06:00:58;8.02;;;7.20;;
45434;SDS011;31183;47.404;8.500;2023-05-15T06:03:26;8.95;;;8.05;;
45434;SDS011;31183;47.404;8.500;2023-05-15T06:05:52;10.05;;;8.27;;
45434;SDS011;31183;47.404;8.500;2023-05-15T06:08:19;8.70;;;7.88;;
45434;SDS011;31183;47.404;8.500;2023-05-15T06:10:46;7.32;;;6.68;;
45434;SDS011;31183;47.404;8.500;2023-05-15T06:13:13;7.72;;;6.85;;
45434;SDS011;31183;47.404;8.500;2023-05-15T06:15:40;8.95;;;7.75;;
45434;SDS011;31183;47.404;8.500;2023-05-15T06:18:07;8.70;;;6.70;;
45434;SDS011;31183;47.404;8.500;2023-05-15T06:20:34;8.43;;;7.40;;
45434;SDS011;31183;47.404;8.500;2023-05-15T06:23:00;7.85;;;7.05;;
45434;SDS011;31183;47.404;8.500;2023-05-15T06:25:27;9.73;;;7.43;;
45434;SDS011;31183;47.404;8.500;2023-05-15T06:27:53;9.00;;;8.10;;
45434;SDS011;31183;47.404;8.500;2023-05-15T06:30:20;9.02;;;7.68;;
45434;SDS011;31183;47.404;8.500;2023-05-15T06:32:48;7.15;;;6.45;;
45434;SDS011;31183;47.404;8.500;2023-05-15T06:35:14;8.43;;;6.95;;
45434;SDS011;31183;47.404;8.500;2023-05-15T06:37:41;7.57;;;6.78;;
45434;SDS011;31183;47.404;8.500;2023-05-15T06:40:08;8.88;;;7.88;;
45434;SDS011;31183;47.404;8.500;2023-05-15T06:42:36;10.60;;;7.72;;
45434;SDS011;31183;47.404;8.500;2023-05-15T06:45:02;10.30;;;7.43;;
45434;SDS011;31183;47.404;8.500;2023-05-15T06:47:29;10.35;;;6.88;;
45434;SDS011;31183;47.404;8.500;2023-05-15T06:49:56;10.80;;;8.13;;
45434;SDS011;31183;47.404;8.500;2023-05-15T06:52:23;8.93;;;7.68;;
45434;SDS011;31183;47.404;8.500;2023-05-15T06:54:49;10.40;;;7.30;;
45434;SDS011;31183;47.404;8.500;2023-05-15T06:57:17;7.22;;;6.53;;
45434;SDS011;31183;47.404;8.500;2023-05-15T06:59:44;8.23;;;6.50;;
45434;SDS011;31183;47.404;8.500;2023-05-15T07:02:11;8.23;;;6.45;;
45434;SDS011;31183;47.404;8.500;2023-05-15T07:04:38;8.07;;;7.05;;
45434;SDS011;31183;47.404;8.500;2023-05-15T07:07:04;7.43;;;6.68;;
45434;SDS011;31183;47.404;8.500;2023-05-15T07:09:31;7.40;;;6.65;;
45434;SDS011;31183;47.404;8.500;2023-05-15T07:11:58;10.07;;;7.75;;
45434;SDS011;31183;47.404;8.500;2023-05-15T07:14:24;7.13;;;6.35;;
45434;SDS011;31183;47.404;8.500;2023-05-15T07:16:51;6.43;;;5.82;;
45434;SDS011;31183;47.404;8.500;2023-05-15T07:19:18;6.70;;;6.00;;
45434;SDS011;31183;47.404;8.500;2023-05-15T07:21:46;10.18;;;5.47;;
45434;SDS011;31183;47.404;8.500;2023-05-15T07:24:12;7.65;;;6.03;;
45434;SDS011;31183;47.404;8.500;2023-05-15T07:26:39;7.30;;;6.45;;
45434;SDS011;31183;47.404;8.500;2023-05-15T07:29:22;7.32;;;6.63;;
45434;SDS011;31183;47.404;8.500;2023-05-15T07:31:49;7.82;;;6.25;;
45434;SDS011;31183;47.404;8.500;2023-05-15T07:34:15;7.28;;;6.57;;
45434;SDS011;31183;47.404;8.500;2023-05-15T07:36:42;6.53;;;5.82;;
45434;SDS011;31183;47.404;8.500;2023-05-15T07:39:09;5.88;;;5.28;;
45434;SDS011;31183;47.404;8.500;2023-05-15T07:41:35;4.78;;;4.38;;
45434;SDS011;31183;47.404;8.500;2023-05-15T07:44:02;8.27;;;5.60;;
45434;SDS011;31183;47.404;8.500;2023-05-15T07:46:29;6.57;;;5.13;;
45434;SDS011;31183;47.404;8.500;2023-05-15T07:48:55;6.32;;;5.18;;
45434;SDS011;31183;47.404;8.500;2023-05-15T07:51:22;5.78;;;4.47;;
45434;SDS011;31183;47.404;8.500;2023-05-15T07:53:48;7.65;;;5.35;;
45434;SDS011;31183;47.404;8.500;2023-05-15T07:56:15;8.02;;;5.80;;
45434;SDS011;31183;47.404;8.500;2023-05-15T07:58:42;8.35;;;6.50;;
45434;SDS011;31183;47.404;8.500;2023-05-15T08:01:09;7.63;;;5.43;;
45434;SDS011;31183;47.404;8.500;2023-05-15T08:03:35;5.93;;;5.35;;
45434;SDS011;31183;47.404;8.500;2023-05-15T08:06:02;8.32;;;6.03;;
45434;SDS011;31183;47.404;8.500;2023-05-15T08:08:29;7.03;;;6.32;;
45434;SDS011;31183;47.404;8.500;2023-05-15T08:10:55;8.93;;;6.95;;
45434;SDS011;31183;47.404;8.500;2023-05-15T08:13:22;7.70;;;6.55;;
45434;SDS011;31183;47.404;8.500;2023-05-15T08:15:49;11.40;;;6.47;;
45434;SDS011;31183;47.404;8.500;2023-05-15T08:18:15;7.80;;;7.00;;
45434;SDS011;31183;47.404;8.500;2023-05-15T08:20:42;10.20;;;8.32;;
45434;SDS011;31183;47.404;8.500;2023-05-15T08:23:09;7.63;;;6.75;;
45434;SDS011;31183;47.404;8.500;2023-05-15T08:25:39;7.10;;;6.40;;
45434;SDS011;31183;47.404;8.500;2023-05-15T08:28:06;11.32;;;7.65;;
45434;SDS011;31183;47.404;8.500;2023-05-15T08:30:33;8.13;;;7.32;;
45434;SDS011;31183;47.404;8.500;2023-05-15T08:33:00;7.05;;;6.22;;
45434;SDS011;31183;47.404;8.500;2023-05-15T08:35:27;7.38;;;6.68;;
45434;SDS011;31183;47.404;8.500;2023-05-15T08:37:54;7.25;;;6.55;;
45434;SDS011;31183;47.404;8.500;2023-05-15T08:40:20;8.38;;;6.60;;
45434;SDS011;31183;47.404;8.500;2023-05-15T08:43:04;7.10;;;5.65;;
45434;SDS011;31183;47.404;8.500;2023-05-15T08:45:36;7.22;;;6.53;;
45434;SDS011;31183;47.404;8.500;2023-05-15T08:48:02;7.53;;;5.45;;
45434;SDS011;31183;47.404;8.500;2023-05-15T08:50:42;5.22;;;4.82;;
45434;SDS011;31183;47.404;8.500;2023-05-15T08:53:09;5.82;;;4.95;;
45434;SDS011;31183;47.404;8.500;2023-05-15T08:55:38;8.88;;;5.85;;
45434;SDS011;31183;47.404;8.500;2023-05-15T08:58:06;6.53;;;5.72;;
45434;SDS011;31183;47.404;8.500;2023-05-15T09:00:33;4.75;;;4.35;;
45434;SDS011;31183;47.404;8.500;2023-05-15T09:03:00;5.60;;;5.05;;
45434;SDS011;31183;47.404;8.500;2023-05-15T09:05:27;5.10;;;4.60;;
45434;SDS011;31183;47.404;8.500;2023-05-15T09:07:55;5.50;;;4.63;;
45434;SDS011;31183;47.404;8.500;2023-05-15T09:10:23;5.05;;;4.65;;
45434;SDS011;31183;47.404;8.500;2023-05-15T09:12:50;4.95;;;4.50;;
45434;SDS011;31183;47.404;8.500;2023-05-15T09:15:18;5.38;;;4.85;;
45434;SDS011;31183;47.404;8.500;2023-05-15T09:17:48;5.88;;;4.75;;
45434;SDS011;31183;47.404;8.500;2023-05-15T09:20:31;5.57;;;5.07;;
45434;SDS011;31183;47.404;8.500;2023-05-15T09:23:00;7.05;;;5.32;;
45434;SDS011;31183;47.404;8.500;2023-05-15T09:25:40;4.95;;;4.50;;
45434;SDS011;31183;47.404;8.500;2023-05-15T09:28:10;6.20;;;4.57;;
45434;SDS011;31183;47.404;8.500;2023-05-15T09:30:58;6.78;;;5.55;;
45434;SDS011;31183;47.404;8.500;2023-05-15T09:33:30;4.85;;;4.28;;
45434;SDS011;31183;47.404;8.500;2023-05-15T09:35:58;4.97;;;4.38;;
45434;SDS011;31183;47.404;8.500;2023-05-15T09:38:25;6.40;;;5.80;;
45434;SDS011;31183;47.404;8.500;2023-05-15T09:41:02;6.03;;;5.43;;
45434;SDS011;31183;47.404;8.500;2023-05-15T09:43:34;5.88;;;5.28;;
45434;SDS011;31183;47.404;8.500;2023-05-15T09:46:02;7.07;;;4.65;;
45434;SDS011;31183;47.404;8.500;2023-05-15T09:48:29;5.53;;;3.95;;
45434;SDS011;31183;47.404;8.500;2023-05-15T09:50:56;5.22;;;4.60;;
45434;SDS011;31183;47.404;8.500;2023-05-15T09:53:23;5.03;;;4.53;;
45434;SDS011;31183;47.404;8.500;2023-05-15T09:55:50;5.18;;;4.68;;
45434;SDS011;31183;47.404;8.500;2023-05-15T09:58:18;4.55;;;4.15;;
45434;SDS011;31183;47.404;8.500;2023-05-15T10:00:45;7.25;;;4.90;;
45434;SDS011;31183;47.404;8.500;2023-05-15T10:03:15;4.88;;;3.42;;
45434;SDS011;31183;47.404;8.500;2023-05-15T10:05:43;5.18;;;4.75;;
45434;SDS011;31183;47.404;8.500;2023-05-15T10:08:10;5.13;;;4.63;;
45434;SDS011;31183;47.404;8.500;2023-05-15T10:10:37;6.22;;;4.15;;
45434;SDS011;31183;47.404;8.500;2023-05-15T10:13:04;4.57;;;4.15;;
45434;SDS011;31183;47.404;8.500;2023-05-15T10:15:33;4.28;;;3.88;;
45434;SDS011;31183;47.404;8.500;2023-05-15T10:18:00;4.45;;;4.00;;
45434;SDS011;31183;47.404;8.500;2023-05-15T10:20:29;4.82;;;4.28;;
45434;SDS011;31183;47.404;8.500;2023-05-15T10:22:57;5.88;;;4.45;;
45434;SDS011;31183;47.404;8.500;2023-05-15T10:27:51;5.15;;;4.05;;
45434;SDS011;31183;47.404;8.500;2023-05-15T10:30:19;4.13;;;3.70;;
45434;SDS011;31183;47.404;8.500;2023-05-15T10:32:47;4.25;;;3.95;;
45434;SDS011;31183;47.404;8.500;2023-05-15T10:35:14;4.93;;;4.50;;
45434;SDS011;31183;47.404;8.500;2023-05-15T10:37:43;4.10;;;3.70;;
45434;SDS011;31183;47.404;8.500;2023-05-15T10:40:12;4.53;;;4.10;;
45434;SDS011;31183;47.404;8.500;2023-05-15T10:42:41;5.10;;;4.13;;
45434;SDS011;31183;47.404;8.500;2023-05-15T10:45:09;4.38;;;3.30;;
45434;SDS011;31183;47.404;8.500;2023-05-15T10:47:37;4.00;;;3.63;;
45434;SDS011;31183;47.404;8.500;2023-05-15T10:50:04;5.05;;;3.80;;
45434;SDS011;31183;47.404;8.500;2023-05-15T10:52:32;3.58;;;3.28;;
45434;SDS011;31183;47.404;8.500;2023-05-15T10:55:00;5.53;;;4.68;;
45434;SDS011;31183;47.404;8.500;2023-05-15T10:57:29;4.82;;;4.25;;
45434;SDS011;31183;47.404;8.500;2023-05-15T10:59:56;4.95;;;4.20;;
45434;SDS011;31183;47.404;8.500;2023-05-15T11:02:24;6.55;;;4.60;;
45434;SDS011;31183;47.404;8.500;2023-05-15T11:04:53;7.53;;;4.82;;
45434;SDS011;31183;47.404;8.500;2023-05-15T11:07:23;5.10;;;4.60;;
45434;SDS011;31183;47.404;8.500;2023-05-15T11:09:51;8.73;;;5.53;;
45434;SDS011;31183;47.404;8.500;2023-05-15T11:12:18;5.43;;;4.93;;
45434;SDS011;31183;47.404;8.500;2023-05-15T11:17:24;5.75;;;5.20;;
45434;SDS011;31183;47.404;8.500;2023-05-15T11:22:19;5.45;;;4.63;;
45434;SDS011;31183;47.404;8.500;2023-05-15T11:27:41;4.78;;;3.97;;
45434;SDS011;31183;47.404;8.500;2023-05-15T11:30:16;7.35;;;4.13;;
45434;SDS011;31183;47.404;8.500;2023-05-15T11:35:17;6.72;;;4.25;;
45434;SDS011;31183;47.404;8.500;2023-05-15T11:37:47;5.28;;;4.32;;
45434;SDS011;31183;47.404;8.500;2023-05-15T11:40:20;5.75;;;3.50;;
45434;SDS011;31183;47.404;8.500;2023-05-15T11:43:04;4.28;;;3.88;;
45434;SDS011;31183;47.404;8.500;2023-05-15T11:45:38;7.13;;;4.27;;
45434;SDS011;31183;47.404;8.500;2023-05-15T11:50:33;4.18;;;3.53;;
45434;SDS011;31183;47.404;8.500;2023-05-15T11:53:00;5.78;;;4.15;;
45434;SDS011;31183;47.404;8.500;2023-05-15T11:55:32;4.47;;;3.38;;
45434;SDS011;31183;47.404;8.500;2023-05-15T11:58:00;5.38;;;4.32;;
45434;SDS011;31183;47.404;8.500;2023-05-15T12:00:27;4.47;;;3.92;;
45434;SDS011;31183;47.404;8.500;2023-05-15T12:02:54;4.85;;;4.45;;
45434;SDS011;31183;47.404;8.500;2023-05-15T12:05:21;5.53;;;3.95;;
45434;SDS011;31183;47.404;8.500;2023-05-15T12:07:48;4.03;;;3.72;;
45434;SDS011;31183;47.404;8.500;2023-05-15T12:10:15;4.50;;;3.72;;
45434;SDS011;31183;47.404;8.500;2023-05-15T12:12:42;5.68;;;4.40;;
45434;SDS011;31183;47.404;8.500;2023-05-15T12:15:10;3.90;;;3.55;;
45434;SDS011;31183;47.404;8.500;2023-05-15T12:17:40;5.05;;;3.88;;
45434;SDS011;31183;47.404;8.500;2023-05-15T12:20:09;4.47;;;3.92;;
45434;SDS011;31183;47.404;8.500;2023-05-15T12:22:40;4.40;;;4.03;;
45434;SDS011;31183;47.404;8.500;2023-05-15T12:25:08;4.93;;;4.43;;
45434;SDS011;31183;47.404;8.500;2023-05-15T12:27:37;5.05;;;4.60;;
45434;SDS011;31183;47.404;8.500;2023-05-15T12:30:06;6.88;;;4.38;;
45434;SDS011;31183;47.404;8.500;2023-05-15T12:32:34;4.18;;;3.80;;
45434;SDS011;31183;47.404;8.500;2023-05-15T12:35:03;4.18;;;3.17;;
45434;SDS011;31183;47.404;8.500;2023-05-15T12:37:30;3.53;;;3.22;;
45434;SDS011;31183;47.404;8.500;2023-05-15T12:40:04;4.00;;;3.30;;
45434;SDS011;31183;47.404;8.500;2023-05-15T12:42:40;4.40;;;3.85;;
45434;SDS011;31183;47.404;8.500;2023-05-15T12:45:11;6.30;;;4.60;;
45434;SDS011;31183;47.404;8.500;2023-05-15T12:47:39;3.92;;;3.47;;
45434;SDS011;31183;47.404;8.500;2023-05-15T12:50:25;3.92;;;3.50;;
45434;SDS011;31183;47.404;8.500;2023-05-15T12:52:56;3.85;;;3.45;;
45434;SDS011;31183;47.404;8.500;2023-05-15T12:55:24;5.75;;;3.80;;
45434;SDS011;31183;47.404;8.500;2023-05-15T12:58:00;5.20;;;3.63;;
45434;SDS011;31183;47.404;8.500;2023-05-15T13:00:32;3.40;;;2.80;;
45434;SDS011;31183;47.404;8.500;2023-05-15T13:03:00;3.80;;;3.40;;
45434;SDS011;31183;47.404;8.500;2023-05-15T13:05:30;4.18;;;3.75;;
45434;SDS011;31183;47.404;8.500;2023-05-15T13:07:58;4.60;;;3.88;;
45434;SDS011;31183;47.404;8.500;2023-05-15T13:10:25;4.53;;;3.80;;
45434;SDS011;31183;47.404;8.500;2023-05-15T13:12:52;3.58;;;3.28;;
45434;SDS011;31183;47.404;8.500;2023-05-15T13:18:13;4.53;;;4.13;;
45434;SDS011;31183;47.404;8.500;2023-05-15T13:20:44;3.33;;;3.03;;
45434;SDS011;31183;47.404;8.500;2023-05-15T13:23:13;4.32;;;3.20;;
45434;SDS011;31183;47.404;8.500;2023-05-15T13:25:41;3.72;;;3.33;;
45434;SDS011;31183;47.404;8.500;2023-05-15T13:28:08;4.70;;;3.70;;
45434;SDS011;31183;47.404;8.500;2023-05-15T13:30:36;5.45;;;3.10;;
45434;SDS011;31183;47.404;8.500;2023-05-15T13:33:07;3.22;;;2.95;;
45434;SDS011;31183;47.404;8.500;2023-05-15T13:35:35;4.35;;;3.22;;
45434;SDS011;31183;47.404;8.500;2023-05-15T13:38:03;3.35;;;2.53;;
45434;SDS011;31183;47.404;8.500;2023-05-15T13:40:29;2.80;;;2.60;;
45434;SDS011;31183;47.404;8.500;2023-05-15T13:42:58;4.00;;;2.92;;
45434;SDS011;31183;47.404;8.500;2023-05-15T13:45:24;3.20;;;2.90;;
45434;SDS011;31183;47.404;8.500;2023-05-15T13:47:51;3.25;;;2.95;;
45434;SDS011;31183;47.404;8.500;2023-05-15T13:50:18;3.28;;;2.97;;
45434;SDS011;31183;47.404;8.500;2023-05-15T13:52:45;2.80;;;2.60;;
45434;SDS011;31183;47.404;8.500;2023-05-15T13:55:12;3.00;;;2.70;;
45434;SDS011;31183;47.404;8.500;2023-05-15T13:57:39;2.63;;;2.42;;
45434;SDS011;31183;47.404;8.500;2023-05-15T14:00:07;2.63;;;2.42;;
45434;SDS011;31183;47.404;8.500;2023-05-15T14:02:39;3.67;;;2.80;;
45434;SDS011;31183;47.404;8.500;2023-05-15T14:05:06;5.55;;;3.17;;
45434;SDS011;31183;47.404;8.500;2023-05-15T14:07:34;4.13;;;2.85;;
45434;SDS011;31183;47.404;8.500;2023-05-15T14:10:01;3.38;;;3.10;;
45434;SDS011;31183;47.404;8.500;2023-05-15T14:12:28;3.00;;;2.80;;
45434;SDS011;31183;47.404;8.500;2023-05-15T14:14:55;2.65;;;2.45;;
45434;SDS011;31183;47.404;8.500;2023-05-15T14:17:22;3.03;;;2.60;;
45434;SDS011;31183;47.404;8.500;2023-05-15T14:19:49;2.88;;;2.42;;
45434;SDS011;31183;47.404;8.500;2023-05-15T14:22:16;2.67;;;2.40;;
45434;SDS011;31183;47.404;8.500;2023-05-15T14:24:42;2.30;;;2.10;;
45434;SDS011;31183;47.404;8.500;2023-05-15T14:27:09;3.78;;;2.60;;
45434;SDS011;31183;47.404;8.500;2023-05-15T14:29:36;2.38;;;2.17;;
45434;SDS011;31183;47.404;8.500;2023-05-15T14:32:03;3.45;;;2.40;;
45434;SDS011;31183;47.404;8.500;2023-05-15T14:34:30;2.33;;;2.20;;
45434;SDS011;31183;47.404;8.500;2023-05-15T14:36:57;3.08;;;2.50;;
45434;SDS011;31183;47.404;8.500;2023-05-15T14:39:23;2.47;;;2.28;;
45434;SDS011;31183;47.404;8.500;2023-05-15T14:41:50;4.07;;;2.50;;
45434;SDS011;31183;47.404;8.500;2023-05-15T14:44:17;2.83;;;2.60;;
45434;SDS011;31183;47.404;8.500;2023-05-15T14:46:44;2.40;;;2.20;;
45434;SDS011;31183;47.404;8.500;2023-05-15T14:49:10;4.40;;;2.60;;
45434;SDS011;31183;47.404;8.500;2023-05-15T14:51:37;3.47;;;2.25;;
45434;SDS011;31183;47.404;8.500;2023-05-15T14:54:04;4.20;;;2.60;;
45434;SDS011;31183;47.404;8.500;2023-05-15T14:56:30;2.63;;;2.42;;
45434;SDS011;31183;47.404;8.500;2023-05-15T14:58:57;2.88;;;2.25;;
45434;SDS011;31183;47.404;8.500;2023-05-15T15:01:24;2.60;;;2.40;;
45434;SDS011;31183;47.404;8.500;2023-05-15T15:03:50;3.40;;;2.60;;
45434;SDS011;31183;47.404;8.500;2023-05-15T15:06:17;2.60;;;2.40;;
45434;SDS011;31183;47.404;8.500;2023-05-15T15:08:44;3.03;;;2.83;;
45434;SDS011;31183;47.404;8.500;2023-05-15T15:11:11;5.47;;;4.05;;
45434;SDS011;31183;47.404;8.500;2023-05-15T15:13:37;6.38;;;3.70;;
45434;SDS011;31183;47.404;8.500;2023-05-15T15:16:04;3.60;;;3.30;;
45434;SDS011;31183;47.404;8.500;2023-05-15T15:18:35;3.92;;;3.63;;
45434;SDS011;31183;47.404;8.500;2023-05-15T15:21:02;4.03;;;3.53;;
45434;SDS011;31183;47.404;8.500;2023-05-15T15:23:29;4.65;;;3.88;;
45434;SDS011;31183;47.404;8.500;2023-05-15T15:25:56;4.55;;;4.05;;
45434;SDS011;31183;47.404;8.500;2023-05-15T15:28:22;3.70;;;3.40;;
45434;SDS011;31183;47.404;8.500;2023-05-15T15:30:49;3.92;;;3.63;;